Time;durP1;ratioP1;P1;durP2;ratioP2;P2;SDS_P1;SDS_P2;PMS_P1;PMS_P2;Temp;Humidity;BMP_temperature;BMP_pressure;BME280_temperature;BME280_humidity;BME280_pressure;Samples;Min_cycle;Max_cycle;Signal;HPM_P1;HPM_P2
2023/09/26 00:02:20;;;;;;;17.50;14.20;;;;;;;13.78;100.00;102028.03;4995190;28;20421;-53
2023/09/26 00:04:47;;;;;;;17.42;13.55;;;;;;;13.80;100.00;102036.81;4995360;28;20066;-51
2023/09/26 00:07:12;;;;;;;18.27;13.95;;;;;;;13.34;100.00;101963.94;4995949;28;20046;-47
2023/09/26 00:09:38;;;;;;;17.52;14.02;;;;;;;13.75;100.00;102038.69;4995734;28;20045;-45
2023/09/26 00:12:03;;;;;;;20.42;15.68;;;;;;;13.82;100.00;102041.16;4994310;28;20382;-49
2023/09/26 00:14:29;;;;;;;22.42;15.98;;;;;;;13.82;100.00;102032.34;4994437;28;20046;-50
2023/09/26 00:16:54;;;;;;;19.17;15.18;;;;;;;13.86;100.00;102036.66;4995455;28;20121;-51
2023/09/26 00:19:19;;;;;;;16.60;14.30;;;;;;;13.83;100.00;102042.91;4995309;28;20038;-48
2023/09/26 00:21:47;;;;;;;18.40;15.07;;;;;;;13.86;100.00;102057.84;4995280;28;20475;-49
2023/09/26 00:24:12;;;;;;;16.85;13.77;;;;;;;13.44;100.00;101983.09;4995265;28;20058;-53
2023/09/26 00:26:38;;;;;;;19.27;14.73;;;;;;;13.48;100.00;101984.75;4995124;28;20084;-48
2023/09/26 00:29:03;;;;;;;22.85;15.65;;;;;;;13.72;100.00;102028.22;4993438;28;20398;-48
2023/09/26 00:31:28;;;;;;;21.88;15.02;;;;;;;13.84;100.00;102052.56;4976681;28;20471;-48
2023/09/26 00:33:54;;;;;;;15.93;13.90;;;;;;;13.84;100.00;102052.56;4993806;28;20038;-47
2023/09/26 00:36:19;;;;;;;22.83;16.00;;;;;;;13.85;100.00;102054.31;4995207;28;20121;-50
2023/09/26 00:38:44;;;;;;;19.83;16.13;;;;;;;13.69;100.00;102009.78;4994969;28;20122;-50
2023/09/26 00:41:10;;;;;;;19.25;16.08;;;;;;;13.90;100.00;102047.09;4993754;28;20038;-48
2023/09/26 00:43:35;;;;;;;28.08;17.88;;;;;;;13.92;100.00;102044.44;4995011;28;20038;-53
2023/09/26 00:46:04;;;;;;;22.38;17.73;;;;;;;13.88;100.00;102032.19;4994944;28;20474;-48
2023/09/26 00:48:29;;;;;;;20.27;17.38;;;;;;;13.54;100.00;101977.50;4993378;28;20058;-49
2023/09/26 00:50:55;;;;;;;22.10;17.45;;;;;;;13.94;100.00;102048.78;4993907;28;20123;-47
2023/09/26 00:53:21;;;;;;;21.88;17.27;;;;;;;13.54;100.00;101974.03;4994732;28;20037;-47
2023/09/26 00:55:49;;;;;;;21.95;19.42;;;;;;;13.55;100.00;101981.03;4992716;28;20053;-53
2023/09/26 00:58:17;;;;;;;22.90;18.55;;;;;;;13.85;100.00;102032.25;4993499;28;20030;-48
2023/09/26 01:00:43;;;;;;;28.52;19.95;;;;;;;13.46;100.00;101970.69;4994615;28;20030;-51
2023/09/26 01:03:09;;;;;;;21.58;18.40;;;;;;;13.39;100.00;101970.00;4989659;28;20053;-50
2023/09/26 01:05:35;;;;;;;23.83;19.35;;;;;;;13.73;100.00;102029.94;4975209;28;20119;-47
2023/09/26 01:08:00;;;;;;;25.92;19.63;;;;;;;13.69;100.00;102012.44;4975344;28;20089;-48
2023/09/26 01:10:26;;;;;;;23.58;18.60;;;;;;;13.42;100.00;101953.19;4973544;28;20034;-53
2023/09/26 01:12:51;;;;;;;24.92;19.88;;;;;;;13.84;100.00;102041.97;4974126;28;20041;-47
2023/09/26 01:15:36;;;;;;;26.42;21.38;;;;;;;13.50;100.00;101978.53;4974910;28;20129;-51
2023/09/26 01:18:03;;;;;;;24.98;21.10;;;;;;;13.73;100.00;102025.53;4973867;28;20030;-49
2023/09/26 01:20:28;;;;;;;24.00;19.50;;;;;;;13.33;100.00;101978.09;4986323;28;20046;-46
2023/09/26 01:22:55;;;;;;;24.52;20.38;;;;;;;13.28;100.00;101985.25;4992880;28;20441;-50
2023/09/26 01:25:20;;;;;;;25.92;19.23;;;;;;;13.11;100.00;101942.50;4994203;28;20366;-48
2023/09/26 01:27:46;;;;;;;28.02;21.15;;;;;;;13.56;100.00;102033.03;4994233;28;20046;-50
2023/09/26 01:30:12;;;;;;;26.27;19.17;;;;;;;13.45;100.00;102014.81;4993988;28;20034;-48
2023/09/26 01:32:38;;;;;;;25.90;19.02;;;;;;;13.49;100.00;102034.97;4992751;28;20041;-50
2023/09/26 01:35:04;;;;;;;25.20;20.85;;;;;;;13.51;100.00;102019.06;4994073;28;20042;-47
2023/09/26 01:37:29;;;;;;;22.05;18.17;;;;;;;13.47;100.00;102022.69;4992599;28;20038;-49
2023/09/26 01:39:54;;;;;;;24.48;19.88;;;;;;;12.98;100.00;101943.72;4994176;28;20077;-49
2023/09/26 01:42:20;;;;;;;27.10;20.73;;;;;;;13.38;100.00;102009.69;4993823;28;20027;-48
2023/09/26 01:44:45;;;;;;;24.67;20.40;;;;;;;13.37;100.00;102008.81;4993828;28;20054;-47
2023/09/26 01:47:14;;;;;;;27.77;22.45;;;;;;;12.95;100.00;101931.44;4994011;28;20034;-47
2023/09/26 01:49:41;;;;;;;23.75;20.05;;;;;;;13.39;100.00;102004.38;4992263;28;20130;-47
2023/09/26 01:52:06;;;;;;;26.85;22.15;;;;;;;13.24;100.00;101983.63;4992289;28;20398;-48
2023/09/26 01:54:31;;;;;;;24.65;21.90;;;;;;;13.24;100.00;101985.38;4991268;28;20053;-53
2023/09/26 01:56:56;;;;;;;28.05;21.92;;;;;;;12.89;100.00;101920.16;4992235;28;20069;-50
2023/09/26 01:59:22;;;;;;;27.55;22.08;;;;;;;13.28;100.00;101989.69;4993281;28;20118;-48
2023/09/26 02:01:47;;;;;;;29.90;23.63;;;;;;;13.24;100.00;101996.84;4993252;28;20069;-47
2023/09/26 02:04:12;;;;;;;28.70;23.67;;;;;;;13.17;100.00;102000.53;4992946;28;20041;-48
2023/09/26 02:06:38;;;;;;;32.75;24.50;;;;;;;13.20;100.00;101996.94;4993116;28;20042;-51
2023/09/26 02:09:03;;;;;;;29.80;24.30;;;;;;;12.78;100.00;101928.31;4991679;28;20057;-47
2023/09/26 02:11:29;;;;;;;30.73;23.92;;;;;;;12.79;100.00;101939.75;4991533;28;20486;-48
2023/09/26 02:13:55;;;;;;;30.08;24.00;;;;;;;13.10;100.00;101998.06;4992833;28;20043;-49
2023/09/26 02:16:21;;;;;;;32.33;25.35;;;;;;;12.67;100.00;101924.19;4993272;28;20049;-46
2023/09/26 02:18:46;;;;;;;31.73;25.58;;;;;;;13.07;100.00;101987.53;4992950;28;20529;-47
2023/09/26 02:21:16;;;;;;;28.00;24.85;;;;;;;13.05;100.00;101984.09;4991985;28;20165;-49
2023/09/26 02:23:41;;;;;;;34.33;26.52;;;;;;;13.05;100.00;101998.13;4991634;28;20099;-46
2023/09/26 02:26:06;;;;;;;36.95;27.23;;;;;;;13.03;100.00;101991.16;4991151;28;20193;-46
2023/09/26 02:28:32;;;;;;;32.70;26.73;;;;;;;12.65;100.00;101918.09;4991533;28;20097;-50
2023/09/26 02:30:57;;;;;;;34.20;27.30;;;;;;;12.60;100.00;101919.97;4993028;28;20042;-51
2023/09/26 02:33:22;;;;;;;36.05;27.88;;;;;;;12.95;100.00;101983.44;4993111;28;20074;-48
2023/09/26 02:35:48;;;;;;;36.92;28.08;;;;;;;12.92;100.00;101988.78;4991583;28;20486;-48
2023/09/26 02:38:13;;;;;;;37.08;28.67;;;;;;;12.85;100.00;101982.75;4992956;28;20077;-47
2023/09/26 02:40:38;;;;;;;35.38;27.52;;;;;;;12.91;100.00;101992.31;4992851;28;20117;-50
2023/09/26 02:43:03;;;;;;;33.95;28.25;;;;;;;12.43;100.00;101915.94;4990278;28;20129;-48
2023/09/26 02:45:30;;;;;;;37.30;29.55;;;;;;;12.83;100.00;101984.59;4993021;28;20038;-48
2023/09/26 02:47:55;;;;;;;35.15;29.15;;;;;;;12.71;100.00;101969.00;4992807;28;20034;-46
2023/09/26 02:50:22;;;;;;;35.03;30.05;;;;;;;12.38;100.00;101917.81;4992744;28;20105;-48
2023/09/26 02:52:47;;;;;;;36.72;28.55;;;;;;;12.81;100.00;101974.97;4992691;28;20038;-48
2023/09/26 02:55:13;;;;;;;36.22;30.08;;;;;;;12.80;100.00;101978.50;4992504;28;20034;-47
2023/09/26 02:57:38;;;;;;;43.03;32.35;;;;;;;12.34;100.00;101899.47;4992354;28;20128;-47
2023/09/26 03:00:16;;;;;;;36.38;29.90;;;;;;;12.79;100.00;101985.53;4990636;28;20038;-49
2023/09/26 03:02:44;;;;;;;40.15;31.98;;;;;;;12.42;100.00;101918.63;4991387;28;20034;-47
2023/09/26 03:05:11;;;;;;;39.28;32.08;;;;;;;12.82;100.00;101996.06;4991418;28;20125;-46
2023/09/26 03:07:37;;;;;;;36.95;31.05;;;;;;;12.73;100.00;101956.63;4992465;28;20046;-48
2023/09/26 03:10:02;;;;;;;37.10;30.48;;;;;;;12.82;100.00;101960.81;4992364;28;20447;-47
2023/09/26 03:12:28;;;;;;;39.50;30.65;;;;;;;12.81;100.00;101967.03;4992452;28;20058;-51
2023/09/26 03:14:55;;;;;;;40.20;30.20;;;;;;;12.72;100.00;101959.31;4991275;28;20046;-50
2023/09/26 03:17:21;;;;;;;38.90;31.83;;;;;;;12.76;100.00;101953.91;4992412;28;20042;-49
2023/09/26 03:19:46;;;;;;;38.13;29.42;;;;;;;12.74;100.00;101966.31;4992309;28;20084;-49
2023/09/26 03:22:11;;;;;;;42.45;30.63;;;;;;;12.78;100.00;101965.31;4992764;28;20043;-46
2023/09/26 03:24:37;;;;;;;37.83;31.30;;;;;;;12.75;100.00;101959.25;4992048;28;20035;-51
2023/09/26 03:27:02;;;;;;;41.67;31.88;;;;;;;12.81;100.00;101962.59;4992096;28;20041;-48
2023/09/26 03:29:27;;;;;;;42.63;34.30;;;;;;;12.81;100.00;101943.25;4991136;28;20045;-48
2023/09/26 03:31:53;;;;;;;38.10;30.38;;;;;;;12.85;100.00;101956.34;4992639;28;20441;-48
2023/09/26 03:34:18;;;;;;;43.78;32.15;;;;;;;12.75;100.00;101949.56;4992357;28;20035;-47
2023/09/26 03:36:43;;;;;;;40.33;32.63;;;;;;;12.82;100.00;101944.97;4994710;28;20154;-49
2023/09/26 03:39:09;;;;;;;36.08;29.55;;;;;;;12.46;100.00;101871.91;4994816;28;20042;-47
2023/09/26 03:41:34;;;;;;;42.03;32.28;;;;;;;12.90;100.00;101940.41;4996431;28;20038;-53
2023/09/26 03:44:00;;;;;;;35.88;31.17;;;;;;;12.51;100.00;101868.25;4996457;28;20038;-45
2023/09/26 03:46:25;;;;;;;39.85;32.83;;;;;;;12.84;100.00;101928.16;4996065;28;20062;-49
2023/09/26 03:48:51;;;;;;;36.60;30.20;;;;;;;12.90;100.00;101938.59;4994901;28;20464;-49
2023/09/26 03:51:16;;;;;;;42.15;33.53;;;;;;;12.92;100.00;101935.94;4996416;28;20061;-48
2023/09/26 03:53:42;;;;;;;38.70;30.83;;;;;;;12.92;100.00;101935.94;4995852;28;20034;-50
2023/09/26 03:56:08;;;;;;;41.55;31.75;;;;;;;12.86;100.00;101922.88;4994501;28;20077;-49
2023/09/26 03:58:34;;;;;;;38.42;31.42;;;;;;;12.47;100.00;101855.13;4994876;28;20039;-48
2023/09/26 04:01:16;;;;;;;41.53;30.55;;;;;;;12.84;100.00;101927.31;4995982;28;20088;-52
2023/09/26 04:03:44;;;;;;;39.78;30.10;;;;;;;12.45;100.00;101855.19;4994790;28;20026;-51
2023/09/26 04:06:09;;;;;;;37.15;28.85;;;;;;;12.79;100.00;101926.53;4994203;28;20393;-50
2023/09/26 04:08:35;;;;;;;35.83;29.02;;;;;;;12.81;100.00;101920.31;4994173;28;20089;-51
2023/09/26 04:11:00;;;;;;;33.53;28.38;;;;;;;12.80;100.00;101918.59;4993109;28;20498;-53
2023/09/26 04:13:25;;;;;;;39.75;30.20;;;;;;;12.38;100.00;101841.25;4995666;28;20134;-49
2023/09/26 04:15:52;;;;;;;37.38;29.65;;;;;;;12.83;100.00;101915.00;4995272;28;20126;-56
2023/09/26 04:18:17;;;;;;;38.20;29.75;;;;;;;12.44;100.00;101845.53;4994406;28;20034;-51
2023/09/26 04:20:44;;;;;;;38.88;30.52;;;;;;;12.92;100.00;101925.34;4994058;28;20030;-47
2023/09/26 04:23:09;;;;;;;44.65;33.03;;;;;;;12.98;100.00;101946.34;4993829;28;20045;-46
2023/09/26 04:25:35;;;;;;;38.88;30.20;;;;;;;12.84;100.00;101909.69;4995493;28;20470;-50
2023/09/26 04:28:01;;;;;;;38.45;30.33;;;;;;;12.58;100.00;101859.25;4994347;28;20080;-51
2023/09/26 04:30:26;;;;;;;37.03;29.67;;;;;;;12.64;100.00;101877.59;4995354;28;20053;-47
2023/09/26 04:32:52;;;;;;;40.42;31.60;;;;;;;12.89;100.00;101921.03;4995136;28;20129;-50
2023/09/26 04:35:17;;;;;;;42.33;31.67;;;;;;;12.77;100.00;101886.97;4995060;28;20441;-47
2023/09/26 04:37:42;;;;;;;43.50;31.92;;;;;;;12.93;100.00;101922.66;4995107;28;20046;-51
2023/09/26 04:40:11;;;;;;;44.72;32.58;;;;;;;12.91;100.00;101913.03;4995295;28;20042;-46
2023/09/26 04:42:45;;;;;;;41.38;30.98;;;;;;;12.92;100.00;101910.38;4995169;28;20046;-48
2023/09/26 04:45:11;;;;;;;40.10;30.90;;;;;;;12.52;100.00;101838.28;4992726;28;20148;-51
2023/09/26 04:47:36;;;;;;;38.85;30.42;;;;;;;12.91;100.00;101898.06;4993903;28;20125;-48
2023/09/26 04:50:02;;;;;;;40.03;31.77;;;;;;;12.93;100.00;101905.94;4993501;28;20054;-49
2023/09/26 04:52:28;;;;;;;41.75;30.70;;;;;;;12.93;100.00;101905.94;4994892;28;20397;-47
2023/09/26 04:54:53;;;;;;;41.63;31.58;;;;;;;12.91;100.00;101903.34;4994802;28;20038;-48
2023/09/26 04:57:18;;;;;;;36.95;30.00;;;;;;;12.45;100.00;101825.28;4994548;28;20066;-48
2023/09/26 04:59:44;;;;;;;38.90;30.40;;;;;;;12.92;100.00;101907.72;4993495;28;20045;-47
2023/09/26 05:02:09;;;;;;;36.17;29.73;;;;;;;12.95;100.00;101922.63;4993592;28;20065;-46
2023/09/26 05:04:34;;;;;;;44.72;30.90;;;;;;;12.93;100.00;101914.72;4994598;28;20048;-49
2023/09/26 05:07:00;;;;;;;39.47;29.23;;;;;;;12.56;100.00;101831.16;4994824;28;20384;-49
2023/09/26 05:09:25;;;;;;;38.75;29.17;;;;;;;12.95;100.00;101904.13;4994586;28;20042;-52
2023/09/26 05:11:50;;;;;;;35.40;29.95;;;;;;;12.92;100.00;101898.94;4994571;28;20513;-50
2023/09/26 05:14:15;;;;;;;35.75;30.60;;;;;;;12.90;100.00;101908.69;4994533;28;20069;-50
2023/09/26 05:16:41;;;;;;;38.95;28.60;;;;;;;12.89;100.00;101901.66;4992928;28;20046;-46
2023/09/26 05:19:06;;;;;;;36.70;29.52;;;;;;;12.91;100.00;101905.13;4994324;28;20038;-48
2023/09/26 05:21:31;;;;;;;36.55;31.20;;;;;;;12.93;100.00;101905.94;4992963;28;20042;-47
2023/09/26 05:23:57;;;;;;;43.53;30.73;;;;;;;12.51;100.00;101826.00;4994557;28;20042;-48
2023/09/26 05:26:22;;;;;;;41.78;31.23;;;;;;;12.92;100.00;101896.28;4994215;28;20460;-52
2023/09/26 05:28:47;;;;;;;46.13;33.28;;;;;;;12.86;100.00;101885.88;4994216;28;20545;-51
2023/09/26 05:31:13;;;;;;;37.95;30.15;;;;;;;12.94;100.00;101897.97;4990772;28;20045;-49
2023/09/26 05:33:38;;;;;;;37.88;29.25;;;;;;;12.59;100.00;101847.78;4992560;28;20034;-48
2023/09/26 05:36:04;;;;;;;38.55;29.83;;;;;;;12.88;100.00;101902.53;4993671;28;20137;-49
2023/09/26 05:38:29;;;;;;;37.65;29.33;;;;;;;12.38;100.00;101816.63;4992308;28;20034;-53
2023/09/26 05:40:54;;;;;;;34.38;27.80;;;;;;;12.86;100.00;101926.38;4992916;28;20046;-49
2023/09/26 05:43:20;;;;;;;40.08;30.83;;;;;;;12.38;100.00;101841.25;4992344;28;20088;-47
2023/09/26 05:45:49;;;;;;;41.10;30.75;;;;;;;12.80;100.00;101921.25;4988864;28;20113;-49
2023/09/26 05:48:14;;;;;;;37.78;29.55;;;;;;;12.78;100.00;101916.91;4989833;28;20034;-49
2023/09/26 05:50:40;;;;;;;42.05;29.40;;;;;;;12.81;100.00;101914.19;4975537;28;20093;-52
2023/09/26 05:53:05;;;;;;;37.30;29.35;;;;;;;12.51;100.00;101868.25;4975124;28;20068;-48
2023/09/26 05:55:31;;;;;;;35.42;29.65;;;;;;;12.82;100.00;101922.06;4990266;28;20073;-49
2023/09/26 05:57:56;;;;;;;35.28;28.02;;;;;;;12.82;100.00;101915.91;4992579;28;20042;-49
2023/09/26 06:00:22;;;;;;;37.80;29.67;;;;;;;12.40;100.00;101842.06;4993225;28;20184;-49
2023/09/26 06:02:47;;;;;;;37.10;29.33;;;;;;;12.46;100.00;101849.00;4991466;28;20042;-47
2023/09/26 06:05:13;;;;;;;39.55;30.50;;;;;;;12.90;100.00;101911.31;4993234;28;20046;-49
2023/09/26 06:07:38;;;;;;;41.03;30.25;;;;;;;12.90;100.00;101906.03;4989087;28;20044;-54
2023/09/26 06:10:05;;;;;;;40.75;31.77;;;;;;;12.98;100.00;101904.06;4993224;28;20042;-48
2023/09/26 06:12:30;;;;;;;44.58;33.45;;;;;;;13.05;100.00;101905.63;4990740;28;20046;-49
2023/09/26 06:14:55;;;;;;;40.00;31.55;;;;;;;13.09;100.00;101909.09;4992914;28;20038;-56
2023/09/26 06:17:21;;;;;;;43.15;33.10;;;;;;;13.11;100.00;101902.00;4989311;28;20045;-55
2023/09/26 06:19:47;;;;;;;37.30;32.05;;;;;;;12.73;100.00;101816.63;4990855;28;20204;-48
2023/09/26 06:22:13;;;;;;;39.30;32.40;;;;;;;12.67;100.00;101813.25;4991775;28;20072;-50
2023/09/26 06:24:38;;;;;;;35.72;30.52;;;;;;;13.14;100.00;101896.63;4990191;28;20068;-55
2023/09/26 06:27:04;;;;;;;37.15;30.75;;;;;;;13.15;100.00;101887.78;4981115;28;20062;-48
2023/09/26 06:29:29;;;;;;;41.20;31.95;;;;;;;12.88;100.00;101841.78;4989375;28;20030;-49
2023/09/26 06:31:54;;;;;;;40.75;31.27;;;;;;;13.23;100.00;101891.97;4986804;28;20053;-50
2023/09/26 06:34:20;;;;;;;40.88;32.58;;;;;;;12.94;100.00;101825.75;4989341;28;20045;-48
2023/09/26 06:36:46;;;;;;;44.63;32.28;;;;;;;13.40;100.00;101900.31;4987646;28;20270;-55
2023/09/26 06:39:12;;;;;;;40.35;33.53;;;;;;;13.32;100.00;101880.28;4989328;28;20039;-49
2023/09/26 06:41:38;;;;;;;40.83;33.60;;;;;;;13.46;100.00;101899.28;4990342;28;20065;-51
2023/09/26 06:44:04;;;;;;;40.30;30.75;;;;;;;13.63;100.00;101901.47;4988452;28;20030;-51
2023/09/26 06:46:29;;;;;;;43.97;34.47;;;;;;;13.30;100.00;101821.28;4988445;28;20366;-49
2023/09/26 06:48:55;;;;;;;41.70;33.30;;;;;;;13.77;100.00;101900.16;4989856;28;20359;-52
2023/09/26 06:51:20;;;;;;;38.60;31.13;;;;;;;13.77;100.00;101879.00;4989884;28;20397;-53
2023/09/26 06:53:45;;;;;;;34.63;30.77;;;;;;;13.93;100.00;101897.94;4990300;28;20042;-53
2023/09/26 06:56:11;;;;;;;39.08;32.40;;;;;;;13.60;100.00;101830.97;4989399;28;20042;-57
2023/09/26 06:58:37;;;;;;;37.45;29.45;;;;;;;13.98;100.00;101882.78;4989330;28;20038;-52
2023/09/26 07:01:03;;;;;;;32.88;27.95;;;;;;;14.05;100.00;101892.28;4986101;28;20425;-54
2023/09/26 07:03:28;;;;;;;32.47;28.98;;;;;;;13.67;100.00;101811.38;4988848;28;20131;-48
2023/09/26 07:05:54;;;;;;;31.95;28.55;;;;;;;13.76;100.00;101816.41;4987917;28;20114;-52
2023/09/26 07:08:20;;;;;;;31.83;28.45;;;;;;;14.17;100.00;101870.72;4985660;28;20533;-53
2023/09/26 07:10:46;;;;;;;29.98;26.67;;;;;;;14.37;100.00;101884.25;4988194;28;20133;-51
2023/09/26 07:13:12;;;;;;;28.42;25.27;;;;;;;14.42;100.00;101869.06;4984475;28;20046;-47
2023/09/26 07:15:37;;;;;;;32.40;27.33;;;;;;;14.26;100.00;101828.06;4981490;28;20042;-56
2023/09/26 07:18:06;;;;;;;27.13;24.27;;;;;;;14.77;100.00;101886.47;4980382;28;20053;-58
2023/09/26 07:20:33;;;;;;;26.67;23.83;;;;;;;14.54;100.00;101818.34;4985689;28;20132;-56
2023/09/26 07:22:59;;;;;;;25.33;22.65;;;;;;;14.86;100.00;101841.09;4987105;28;20031;-53
2023/09/26 07:25:24;;;;;;;26.52;22.23;;;;;;;15.10;100.00;101872.06;4986249;28;20040;-52
2023/09/26 07:27:50;;;;;;;23.98;20.95;;;;;;;15.30;100.00;101883.75;4989150;28;20046;-53
2023/09/26 07:30:15;;;;;;;22.73;20.45;;;;;;;15.03;100.00;101832.59;4988424;28;20316;-50
2023/09/26 07:32:41;;;;;;;22.35;19.17;;;;;;;14.99;100.00;101810.59;4988999;28;20123;-58
2023/09/26 07:35:07;;;;;;;23.67;18.88;;;;;;;15.26;100.00;101815.84;4989481;28;20046;-53
2023/09/26 07:37:32;;;;;;;22.75;18.08;;;;;;;15.67;100.00;101877.09;4990651;28;20046;-50
2023/09/26 07:39:57;;;;;;;19.27;17.25;;;;;;;15.30;100.00;101812.13;4988308;28;20039;-49
2023/09/26 07:42:23;;;;;;;18.85;16.75;;;;;;;15.40;100.00;101808.25;4989180;28;20053;-52
2023/09/26 07:44:48;;;;;;;19.83;17.77;;;;;;;15.86;100.00;101871.09;4989260;28;20050;-49
2023/09/26 07:47:13;;;;;;;19.33;17.27;;;;;;;15.93;100.00;101893.88;4983205;28;20142;-49
2023/09/26 07:49:40;;;;;;;18.55;16.67;;;;;;;16.03;100.00;101896.09;4984615;28;20475;-51
2023/09/26 07:52:05;;;;;;;18.75;15.82;;;;;;;16.15;100.00;101898.28;4976617;28;20378;-51
2023/09/26 07:54:32;;;;;;;17.42;15.68;;;;;;;15.89;100.00;101821.41;4989143;28;20035;-56
2023/09/26 07:56:57;;;;;;;19.02;15.23;;;;;;;16.36;100.00;101856.72;4989541;28;20050;-50
2023/09/26 07:59:22;;;;;;;18.08;13.75;;;;;;;16.26;100.00;101800.44;4989070;28;20162;-53
2023/09/26 08:01:48;;;;;;;15.80;14.07;;;;;;;16.52;100.00;101820.63;4987335;28;20038;-52
2023/09/26 08:04:13;;;;;;;15.38;13.77;;;;;;;16.88;100.00;101874.09;4987411;28;20057;-53
2023/09/26 08:06:38;;;;;;;14.25;12.82;;;;;;;16.61;100.00;101801.66;4988810;28;20038;-56
2023/09/26 08:09:04;;;;;;;14.63;13.32;;;;;;;17.12;100.00;101866.88;4990297;28;20041;-50
2023/09/26 08:11:29;;;;;;;15.32;12.98;;;;;;;17.27;100.00;101871.53;4991753;28;20129;-58
2023/09/26 08:13:55;;;;;;;15.15;12.27;;;;;;;16.87;100.00;101766.84;4992002;28;20034;-55
2023/09/26 08:16:22;;;;;;;15.45;12.32;;;;;;;17.52;100.00;101823.38;4989772;28;20035;-55
2023/09/26 08:18:49;;;;;;;12.43;11.23;;;;;;;18.12;100.00;101883.63;4990427;28;20036;-55
2023/09/26 08:21:14;;;;;;;12.77;11.35;;;;;;;17.97;100.00;101829.28;4991835;28;20438;-56
2023/09/26 08:23:40;;;;;;;13.00;11.48;;;;;;;18.33;100.00;101886.13;4995489;28;20034;-52
2023/09/26 08:26:11;;;;;;;11.40;10.38;;;;;;;17.97;100.00;101824.81;4994177;28;20026;-51
2023/09/26 08:28:40;;;;;;;13.88;10.73;;;;;;;18.27;100.00;101891.75;4995491;28;20042;-50
2023/09/26 08:31:09;;;;;;;12.18;10.90;;;;;;;18.17;100.00;101885.16;4995601;28;20541;-49
2023/09/26 08:33:36;;;;;;;13.15;10.93;;;;;;;18.10;100.00;101910.34;4994409;28;20079;-53
2023/09/26 08:36:01;;;;;;;12.63;10.98;;;;;;;18.08;100.00;101874.06;4994123;28;20192;-50
2023/09/26 08:38:27;;;;;;;16.42;11.02;;;;;;;18.05;100.00;101832.44;4995285;28;20505;-55
2023/09/26 08:40:57;;;;;;;11.40;9.98;;;;;;;18.68;100.00;101843.59;4994109;28;20477;-52
2023/09/26 08:43:26;;;;;;;10.90;9.75;;;;;;;19.33;100.00;101841.06;4993939;28;20034;-49
2023/09/26 08:45:52;;;;;;;11.07;9.35;;;;;;;19.91;100.00;101867.31;4994121;28;20065;-49
2023/09/26 08:48:18;;;;;;;11.23;9.93;;;;;;;19.88;100.00;101862.16;4994932;28;20053;-52
2023/09/26 08:50:44;;;;;;;12.48;10.00;;;;;;;19.55;100.00;101859.53;4995179;28;20133;-50
2023/09/26 08:53:09;;;;;;;12.60;10.38;;;;;;;19.54;100.00;101908.53;4993820;28;20451;-54
2023/09/26 08:55:37;;;;;;;10.98;9.88;;;;;;;19.30;100.00;101909.75;4993677;28;20041;-54
2023/09/26 08:58:03;;;;;;;11.35;10.25;;;;;;;18.68;100.00;101838.28;4993612;28;20088;-47
2023/09/26 09:00:28;;;;;;;12.20;10.93;;;;;;;17.95;100.00;101744.09;4993634;28;20034;-54
2023/09/26 09:02:54;;;;;;;9.90;8.88;;;;;;;18.53;100.00;101845.22;4994876;28;20490;-52
2023/09/26 09:05:21;;;;;;;11.40;10.20;;;;;;;18.54;100.00;101836.28;4994686;28;20069;-50
2023/09/26 09:07:47;;;;;;;11.25;10.15;;;;;;;18.58;100.00;101840.53;4995894;28;20065;-49
2023/09/26 09:10:16;;;;;;;13.45;10.02;;;;;;;18.76;100.00;101838.75;4993267;28;20427;-54
2023/09/26 09:12:44;;;;;;;11.45;10.30;;;;;;;19.50;100.00;101898.94;4995021;28;20113;-55
2023/09/26 09:15:15;;;;;;;11.90;10.00;;;;;;;19.91;100.00;101896.72;4994648;28;20410;-54
2023/09/26 09:17:47;;;;;;;11.45;9.52;;;;;;;19.71;100.00;101838.16;4994651;28;20038;-49
2023/09/26 09:20:16;;;;;;;11.27;10.00;;;;;;;20.16;100.00;101887.28;4994501;28;20034;-54
2023/09/26 09:22:43;;;;;;;10.10;9.20;;;;;;;20.06;100.00;101842.44;4993270;28;20074;-51
2023/09/26 09:25:09;;;;;;;10.65;9.55;;;;;;;20.12;100.00;101852.78;4994547;28;20398;-52
2023/09/26 09:27:38;;;;;;;11.55;10.15;;;;;;;20.59;100.00;101920.53;4994700;28;20064;-55
2023/09/26 09:30:07;;;;;;;11.88;9.65;;;;;;;21.10;100.00;101927.34;4993277;28;20032;-50
2023/09/26 09:32:34;;;;;;;10.07;8.27;;;;;;;21.34;100.00;101865.28;4994370;28;20022;-48
2023/09/26 09:34:59;;;;;;;11.50;9.48;;;;;;;21.98;100.00;101939.91;4976334;28;20030;-49
2023/09/26 09:37:25;;;;;;;11.98;9.65;;;;;;;22.04;100.00;101936.81;4994141;28;20050;-52
2023/09/26 09:39:51;;;;;;;11.60;9.00;;;;;;;21.72;100.00;101878.00;4994345;28;20038;-52
2023/09/26 09:42:17;;;;;;;10.25;9.35;;;;;;;22.00;100.00;101908.50;4994296;28;20070;-50
2023/09/26 09:44:42;;;;;;;13.10;8.77;;;;;;;22.12;100.00;101915.75;4993285;28;20035;-51
2023/09/26 09:47:10;;;;;;;10.07;8.80;;;;;;;22.18;100.00;101923.41;4994254;28;20038;-48
2023/09/26 09:49:41;;;;;;;10.23;8.88;;;;;;;21.89;100.00;101854.69;4994308;28;20100;-49
2023/09/26 09:52:09;;;;;;;10.32;9.02;;;;;;;21.94;100.00;101916.91;4992747;28;20034;-50
2023/09/26 09:54:37;;;;;;;10.05;9.05;;;;;;;21.83;100.00;101904.16;4992985;28;20085;-51
2023/09/26 09:57:09;;;;;;;13.13;8.98;;;;;;;21.82;100.00;101849.69;4992859;28;20073;-51
2023/09/26 09:59:36;;;;;;;12.27;8.77;;;;;;;22.81;100.00;101916.56;4994113;28;20113;-50
2023/09/26 10:02:03;;;;;;;11.23;8.05;;;;;;;23.70;100.00;101912.22;4992607;28;20041;-56
2023/09/26 10:04:29;;;;;;;8.30;7.45;;;;;;;24.75;100.00;101923.47;4992428;28;20066;-49
2023/09/26 10:06:55;;;;;;;12.93;8.15;;;;;;;25.33;100.00;101931.56;4993706;28;20069;-50
2023/09/26 10:09:21;;;;;;;9.82;7.43;;;;;;;25.84;100.00;101940.16;4992792;28;20037;-49
2023/09/26 10:11:46;;;;;;;8.57;7.40;;;;;;;26.00;100.00;101940.66;4992694;28;20066;-53
2023/09/26 10:14:21;;;;;;;9.50;7.88;;;;;;;26.31;100.00;101930.97;4993909;28;20429;-53
2023/09/26 10:16:47;;;;;;;9.15;7.28;;;;;;;26.28;100.00;101959.09;4993710;28;20042;-50
2023/09/26 10:19:13;;;;;;;9.25;7.13;;;;;;;26.00;100.00;101940.66;4993536;28;20034;-49
2023/09/26 10:21:40;;;;;;;8.15;7.35;;;;;;;25.63;100.00;101933.72;4993793;28;20437;-53
2023/09/26 10:24:06;;;;;;;10.40;7.82;;;;;;;25.19;100.00;101919.13;4993837;28;20488;-54
2023/09/26 10:26:32;;;;;;;9.43;7.87;;;;;;;24.91;100.00;101906.06;4993384;28;20038;-52
2023/09/26 10:29:11;;;;;;;8.80;6.88;;;;;;;24.44;100.00;101844.97;4992392;28;20273;-50
2023/09/26 10:31:41;;;;;;;9.32;7.18;;;;;;;24.72;100.00;101859.94;4993310;28;20034;-48
2023/09/26 10:34:07;;;;;;;10.38;5.78;;;;;;;25.02;100.00;101829.81;4993635;28;20027;-48
2023/09/26 10:36:33;;;;;;;8.52;6.15;;;;;;;25.98;100.00;101899.44;4993218;28;20050;-53
2023/09/26 10:39:05;;;;;;;7.20;5.65;;;;;;;27.14;100.00;101902.41;4993068;28;20022;-52
2023/09/26 10:41:31;;;;;;;9.90;6.80;;;;;;;27.06;100.00;101861.63;4993135;28;20391;-53
2023/09/26 10:43:56;;;;;;;7.10;5.35;;;;;;;27.24;100.00;101892.50;4993031;28;20482;-55
2023/09/26 10:46:23;;;;;;;9.00;8.05;;;;;;;27.49;100.00;101904.81;4990818;28;20088;-54
2023/09/26 10:48:48;;;;;;;10.95;5.70;;;;;;;27.51;100.00;101913.63;4993346;28;20509;-57
2023/09/26 10:51:15;;;;;;;6.97;4.28;;;;;;;27.24;100.00;101870.88;4993129;28;20048;-52
2023/09/26 10:53:41;;;;;;;5.85;4.07;;;;;;;27.19;100.00;101896.59;4991867;28;20038;-53
2023/09/26 10:56:08;;;;;;;7.65;3.90;;;;;;;27.38;100.00;101902.13;4992903;28;20527;-54
2023/09/26 10:58:33;;;;;;;7.50;3.15;;;;;;;28.20;100.00;101870.53;4992527;28;20474;-51
2023/09/26 11:00:58;;;;;;;5.35;3.72;;;;;;;29.52;100.00;101908.72;4992723;28;20034;-53